Aviation Digital Data Service (ADDS)

Output produced by METARs form (1216 UTC 17 September 2019)
found at http://www.aviationweather.gov/metar/data/
 
Forecast for: ZWWW (URUM-QI/DIWOPU , CN)
Text: TAF ZWWW 170902Z 1712/1812 03004MPS CAVOK TX24/1809Z TN14/1723Z
Forecast period: 1200 to 1400 UTC 17 September 2019
Forecast type: FROM: standard forecast or significant change
Winds: from the NNE (30 degrees) at 9 MPH (8 knots; 4.1 m/s)
Visibility: 6 or more miles 10+ km)
Ceiling: unknown
Clouds: missing
Weather: no significant weather forecast for this period
Text: BECMG 1714/1715 18004MPS
Forecast period: 1400 UTC 17 September 2019 to 0200 UTC 18 September 2019
Forecast type: BECOMING: Conditions expected to become as follows by 1500 UTC 17 September 2019
Winds: from the S (180 degrees) at 9 MPH (8 knots; 4.1 m/s)
Visibility: 6 or more miles 10+ km)
Ceiling: unknown
Clouds: missing
Weather: no significant weather forecast for this period
Text: BECMG 1802/1803 03004MPS
Forecast period: 0200 to 1200 UTC 18 September 2019
Forecast type: BECOMING: Conditions expected to become as follows by 0300 UTC 18 September 2019
Winds: from the NNE (30 degrees) at 9 MPH (8 knots; 4.1 m/s)
Visibility: 6 or more miles 10+ km)
Ceiling: unknown
Clouds: missing
Weather: no significant weather forecast for this period